createdAt,value
2023-02-20T00:01:37.899Z,3.90
2023-02-20T00:04:06.429Z,3.67
2023-02-20T00:06:36.290Z,2.70
2023-02-20T00:09:04.726Z,2.70
2023-02-20T00:11:33.192Z,2.97
2023-02-20T00:14:01.687Z,2.40
2023-02-20T00:16:30.166Z,2.43
2023-02-20T00:18:58.734Z,2.47
2023-02-20T00:21:27.159Z,2.40
2023-02-20T00:23:56.964Z,2.70
2023-02-20T00:26:25.396Z,2.50
2023-02-20T00:28:53.949Z,2.30
2023-02-20T00:31:22.450Z,2.20
2023-02-20T00:33:50.889Z,2.10
2023-02-20T00:36:20.301Z,2.10
2023-02-20T00:38:49.008Z,1.90
2023-02-20T00:41:18.823Z,2.00
2023-02-20T00:43:47.226Z,2.10
2023-02-20T00:46:16.311Z,1.80
2023-02-20T00:48:44.995Z,1.80
2023-02-20T00:51:13.443Z,1.60
2023-02-20T00:53:41.967Z,1.83
2023-02-20T00:56:10.739Z,2.00
2023-02-20T00:58:40.737Z,1.73
2023-02-20T01:01:09.279Z,1.93
2023-02-20T01:03:37.809Z,1.87
2023-02-20T01:06:06.653Z,1.80
2023-02-20T01:08:35.060Z,1.80
2023-02-20T01:11:03.506Z,1.80
2023-02-20T01:13:31.923Z,1.80
2023-02-20T01:16:01.758Z,1.80
2023-02-20T01:18:30.305Z,1.70
2023-02-20T01:20:58.701Z,1.77
2023-02-20T01:23:27.176Z,1.60
2023-02-20T01:25:55.592Z,1.70
2023-02-20T01:28:24.149Z,1.80
2023-02-20T01:30:52.602Z,1.60
2023-02-20T01:33:22.579Z,1.83
2023-02-20T01:35:51.028Z,1.70
2023-02-20T01:38:19.850Z,5.00
2023-02-20T01:40:49.395Z,6.20
2023-02-20T01:43:18.107Z,2.53
2023-02-20T01:45:46.551Z,1.97
2023-02-20T01:48:23.273Z,1.50
2023-02-20T01:50:54.980Z,1.40
2023-02-20T01:53:25.370Z,1.03
2023-02-20T01:55:56.921Z,1.50
2023-02-20T01:58:27.779Z,1.30
2023-02-20T02:00:58.011Z,1.10
2023-02-20T02:03:30.384Z,1.13
2023-02-20T02:06:01.404Z,1.37
2023-02-20T02:08:30.273Z,1.20
2023-02-20T02:11:02.998Z,0.80
2023-02-20T02:13:31.505Z,1.17
2023-02-20T02:16:07.092Z,1.00
2023-02-20T02:18:53.644Z,1.00
2023-02-20T02:22:03.070Z,1.10
2023-02-20T02:25:12.430Z,1.10
2023-02-20T02:28:12.426Z,1.60
2023-02-20T02:31:00.011Z,1.20
2023-02-20T02:33:49.954Z,1.30
2023-02-20T02:36:57.601Z,1.53
2023-02-20T02:39:31.392Z,1.10
2023-02-20T02:42:04.919Z,1.60
2023-02-20T02:44:40.780Z,1.73
2023-02-20T02:47:12.957Z,1.80
2023-02-20T02:49:46.493Z,1.93
2023-02-20T02:52:36.582Z,2.00
2023-02-20T02:55:05.850Z,1.80
2023-02-20T02:57:34.339Z,1.70
2023-02-20T03:00:05.781Z,1.87
2023-02-20T03:02:36.489Z,1.50
2023-02-20T03:05:07.685Z,1.63
2023-02-20T03:07:39.416Z,1.70
2023-02-20T03:10:10.505Z,1.87
2023-02-20T03:12:41.989Z,1.90
2023-02-20T03:15:31.150Z,1.70
2023-02-20T03:18:10.752Z,2.00
2023-02-20T03:20:40.709Z,1.80
2023-02-20T03:23:12.883Z,1.40
2023-02-20T03:25:46.328Z,1.23
2023-02-20T03:28:17.915Z,1.40
2023-02-20T03:30:51.083Z,1.67
2023-02-20T03:33:41.291Z,2.03
2023-02-20T03:36:30.562Z,1.97
2023-02-20T03:39:20.648Z,2.17
2023-02-20T03:42:06.952Z,2.20
2023-02-20T03:44:35.953Z,2.30
2023-02-20T03:47:04.801Z,2.30
2023-02-20T03:49:36.504Z,1.90
2023-02-20T03:52:05.236Z,1.80
2023-02-20T03:54:36.398Z,2.10
2023-02-20T03:57:07.191Z,1.80
2023-02-20T03:59:40.144Z,2.03
2023-02-20T04:02:12.371Z,1.77
2023-02-20T04:04:43.529Z,1.77
2023-02-20T04:07:15.872Z,2.00
2023-02-20T04:09:47.460Z,2.00
2023-02-20T04:12:19.140Z,1.83
2023-02-20T04:14:47.893Z,1.87
2023-02-20T04:17:18.480Z,1.77
2023-02-20T04:19:47.051Z,2.10
2023-02-20T04:22:20.350Z,2.27
2023-02-20T04:24:53.612Z,2.60
2023-02-20T04:27:22.415Z,2.10
2023-02-20T04:29:50.943Z,2.53
2023-02-20T04:32:19.461Z,2.50
2023-02-20T04:34:48.123Z,2.30
2023-02-20T04:37:18.903Z,2.40
2023-02-20T04:39:47.745Z,3.30
2023-02-20T04:42:17.569Z,2.70
2023-02-20T04:44:45.986Z,2.90
2023-02-20T04:47:18.174Z,2.90
2023-02-20T04:49:46.713Z,3.03
2023-02-20T04:52:15.115Z,3.00
2023-02-20T04:54:43.517Z,3.53
2023-02-20T04:57:11.913Z,4.13
2023-02-20T04:59:41.894Z,5.40
2023-02-20T05:02:10.525Z,5.80
2023-02-20T05:04:39.026Z,5.30
2023-02-20T05:07:07.791Z,5.10
2023-02-20T05:09:36.252Z,5.10
2023-02-20T05:12:05.131Z,4.93
2023-02-20T05:14:33.544Z,4.03
2023-02-20T05:17:03.390Z,3.87
2023-02-20T05:19:31.806Z,3.20
2023-02-20T05:22:17.353Z,3.10
2023-02-20T05:24:46.058Z,3.37
2023-02-20T05:27:15.942Z,12.70
2023-02-20T05:29:47.680Z,18.47
2023-02-20T05:32:18.277Z,14.07
2023-02-20T05:34:47.042Z,6.03
2023-02-20T05:37:17.047Z,4.93
2023-02-20T05:39:45.500Z,3.40
2023-02-20T05:42:14.278Z,3.10
2023-02-20T05:44:43.076Z,3.10
2023-02-20T05:47:11.708Z,3.10
2023-02-20T05:49:41.698Z,4.03
2023-02-20T05:52:12.439Z,3.50
2023-02-20T05:54:42.049Z,3.47
2023-02-20T05:57:13.014Z,3.37
2023-02-20T05:59:41.420Z,3.50
2023-02-20T06:02:09.898Z,3.60
2023-02-20T06:04:38.382Z,3.40
2023-02-20T06:07:10.294Z,3.23
2023-02-20T06:09:38.875Z,3.60
2023-02-20T06:12:07.757Z,3.40
2023-02-20T06:14:36.345Z,4.10
2023-02-20T06:17:04.786Z,4.80
2023-02-20T06:19:33.184Z,4.03
2023-02-20T06:22:01.936Z,5.18
2023-02-20T06:24:31.747Z,4.10
2023-02-20T06:27:01.187Z,3.60
2023-02-20T06:29:29.805Z,3.70
2023-02-20T06:32:00.281Z,3.63
2023-02-20T06:34:31.611Z,3.57
2023-02-20T06:37:02.888Z,3.37
2023-02-20T06:39:33.755Z,3.23
2023-02-20T06:42:02.345Z,3.10
2023-02-20T06:44:30.965Z,4.53
2023-02-20T06:46:59.539Z,3.77
2023-02-20T06:49:28.148Z,3.50
2023-02-20T06:51:57.729Z,3.80
2023-02-20T06:54:26.192Z,3.50
2023-02-20T06:56:56.967Z,4.13
2023-02-20T06:59:25.385Z,5.10
2023-02-20T07:01:54.001Z,4.03
2023-02-20T07:04:27.745Z,4.87
2023-02-20T07:06:56.681Z,5.33
2023-02-20T07:09:25.936Z,5.03
2023-02-20T07:11:56.276Z,4.43
2023-02-20T07:14:25.111Z,4.70
2023-02-20T07:16:53.617Z,4.43
2023-02-20T07:19:22.108Z,4.97
2023-02-20T07:21:50.747Z,4.97
2023-02-20T07:24:19.947Z,4.67
2023-02-20T07:26:49.049Z,4.43
2023-02-20T07:29:18.843Z,4.43
2023-02-20T07:31:47.434Z,4.60
2023-02-20T07:34:15.956Z,5.67
2023-02-20T07:36:44.423Z,16.80
2023-02-20T07:39:14.471Z,6.77
2023-02-20T07:41:43.379Z,5.53
2023-02-20T07:44:12.993Z,5.37
2023-02-20T07:46:43.515Z,6.20
2023-02-20T07:49:12.357Z,6.37
2023-02-20T07:51:40.822Z,6.00
2023-02-20T07:54:09.230Z,5.13
2023-02-20T07:56:37.683Z,4.83
2023-02-20T07:59:06.104Z,5.20
2023-02-20T08:01:34.684Z,4.40
2023-02-20T08:04:04.632Z,5.07
2023-02-20T08:06:33.062Z,3.60
2023-02-20T08:09:01.671Z,3.70
2023-02-20T08:11:34.041Z,3.37
2023-02-20T08:14:07.726Z,3.07
2023-02-20T08:16:36.237Z,4.17
2023-02-20T08:19:06.170Z,5.43
2023-02-20T08:21:34.656Z,5.10
2023-02-20T08:24:03.160Z,6.03
2023-02-20T08:26:31.593Z,5.00
2023-02-20T08:29:00.165Z,4.33
2023-02-20T08:31:32.538Z,9.93
2023-02-20T08:34:01.776Z,6.23
2023-02-20T08:36:31.604Z,4.07
2023-02-20T08:39:01.123Z,8.60
2023-02-20T08:41:29.612Z,6.50
2023-02-20T08:43:58.164Z,5.80
2023-02-20T08:46:26.690Z,5.33
2023-02-20T08:48:55.732Z,6.60
2023-02-20T08:51:25.565Z,4.40
2023-02-20T08:53:55.409Z,4.30
2023-02-20T08:56:23.870Z,5.50
2023-02-20T08:58:52.395Z,6.13
2023-02-20T09:01:20.924Z,4.70
2023-02-20T09:03:51.527Z,5.97
2023-02-20T09:06:20.002Z,4.30
2023-02-20T09:08:48.604Z,4.87
2023-02-20T09:11:18.768Z,7.83
2023-02-20T09:13:48.226Z,13.83
2023-02-20T09:16:18.250Z,4.10
2023-02-20T09:18:46.998Z,4.10
2023-02-20T09:21:17.642Z,4.10
2023-02-20T09:23:46.588Z,3.73
2023-02-20T09:26:15.297Z,4.23
2023-02-20T09:28:45.252Z,3.90
2023-02-20T09:31:13.727Z,6.50
2023-02-20T09:33:50.876Z,4.90
2023-02-20T09:36:20.135Z,4.07
2023-02-20T09:38:48.757Z,3.47
2023-02-20T09:41:27.526Z,7.87
2023-02-20T09:44:04.154Z,6.10
2023-02-20T09:46:32.717Z,4.20
2023-02-20T09:49:06.825Z,5.37
2023-02-20T09:51:38.446Z,8.90
2023-02-20T09:54:09.143Z,7.13
2023-02-20T09:56:41.151Z,4.40
2023-02-20T09:59:14.892Z,4.20
2023-02-20T10:01:47.596Z,3.80
2023-02-20T10:04:19.069Z,2.67
2023-02-20T10:06:48.454Z,3.60
2023-02-20T10:09:18.024Z,2.80
2023-02-20T10:11:51.264Z,2.10
2023-02-20T10:14:49.413Z,2.10
2023-02-20T10:17:25.284Z,3.27
2023-02-20T10:19:58.172Z,2.67
2023-02-20T10:22:31.607Z,2.27
2023-02-20T10:25:09.729Z,2.00
2023-02-20T10:27:46.472Z,2.00
2023-02-20T10:30:21.776Z,3.03
2023-02-20T10:32:54.955Z,2.30
2023-02-20T10:35:26.054Z,1.50
2023-02-20T10:37:58.375Z,0.63
2023-02-20T10:40:30.590Z,2.57
2023-02-20T10:43:03.206Z,4.27
2023-02-20T10:45:44.100Z,1.73
2023-02-20T10:48:15.537Z,0.60
2023-02-20T10:50:49.241Z,0.90
2023-02-20T10:53:26.939Z,0.80
2023-02-20T10:56:00.351Z,4.30
2023-02-20T10:58:33.108Z,3.53
2023-02-20T11:01:05.366Z,2.27
2023-02-20T11:03:39.092Z,2.20
2023-02-20T11:06:08.560Z,2.10
2023-02-20T11:08:37.013Z,2.23
2023-02-20T11:11:23.906Z,2.50
2023-02-20T11:13:52.348Z,2.00
2023-02-20T11:16:30.688Z,2.27
2023-02-20T11:19:07.246Z,2.30
2023-02-20T11:21:38.821Z,2.30
2023-02-20T11:24:34.557Z,2.57
2023-02-20T11:27:08.327Z,2.37
2023-02-20T11:29:42.590Z,2.20
2023-02-20T11:32:34.926Z,2.23
2023-02-20T11:35:23.376Z,2.10
2023-02-20T11:37:55.446Z,2.23
2023-02-20T11:40:28.832Z,2.20
2023-02-20T11:42:57.326Z,2.20
2023-02-20T11:45:29.800Z,2.10
2023-02-20T11:48:21.069Z,1.97
2023-02-20T11:50:50.758Z,2.37
2023-02-20T11:53:22.014Z,1.90
2023-02-20T11:55:59.740Z,1.90
2023-02-20T11:58:29.888Z,1.80
2023-02-20T12:00:58.476Z,1.90
2023-02-20T12:03:29.510Z,2.00
2023-02-20T12:05:58.860Z,2.00
2023-02-20T12:08:37.952Z,1.60
2023-02-20T12:11:09.294Z,1.93
2023-02-20T12:13:40.234Z,2.17
2023-02-20T12:16:25.603Z,2.20
2023-02-20T12:19:00.156Z,1.80
2023-02-20T12:21:35.814Z,1.87
2023-02-20T12:24:14.632Z,1.90
2023-02-20T12:26:54.015Z,1.80
2023-02-20T12:29:39.854Z,2.10
2023-02-20T12:32:18.903Z,2.10
2023-02-20T12:34:58.762Z,2.00
2023-02-20T12:37:37.922Z,1.67
2023-02-20T12:40:27.558Z,1.67
2023-02-20T12:43:03.188Z,1.90
2023-02-20T12:45:36.745Z,1.77
2023-02-20T12:48:19.272Z,2.10
2023-02-20T12:51:01.681Z,1.80
2023-02-20T12:53:38.713Z,1.77
2023-02-20T12:56:28.937Z,1.90
2023-02-20T12:59:05.788Z,1.83
2023-02-20T13:01:51.189Z,1.50
2023-02-20T13:04:28.400Z,1.40
2023-02-20T13:07:15.659Z,1.63
2023-02-20T13:09:47.673Z,1.67
2023-02-20T13:12:19.282Z,1.50
2023-02-20T13:15:00.818Z,1.50
2023-02-20T13:17:37.023Z,1.63
2023-02-20T13:20:13.862Z,1.60
2023-02-20T13:22:43.781Z,1.63
2023-02-20T13:25:41.915Z,1.63
2023-02-20T13:28:27.956Z,2.00
2023-02-20T13:31:19.778Z,1.60
2023-02-20T13:33:50.133Z,7.03
2023-02-20T13:36:41.482Z,1.80
2023-02-20T13:39:45.906Z,1.50
2023-02-20T13:42:37.409Z,1.50
2023-02-20T13:45:39.824Z,2.60
2023-02-20T13:48:42.491Z,2.10
2023-02-20T13:51:35.503Z,2.00
2023-02-20T13:54:29.436Z,2.03
2023-02-20T13:57:03.109Z,1.90
2023-02-20T13:59:34.658Z,1.70
2023-02-20T14:02:06.442Z,1.77
2023-02-20T14:04:34.999Z,2.10
2023-02-20T14:07:03.843Z,1.83
2023-02-20T14:09:32.382Z,1.90
2023-02-20T14:12:08.007Z,2.13
2023-02-20T14:14:42.078Z,2.13
2023-02-20T14:17:15.798Z,2.10
2023-02-20T14:19:46.044Z,1.90
2023-02-20T14:22:28.288Z,1.73
2023-02-20T14:25:29.995Z,1.73
2023-02-20T14:28:13.532Z,2.07
2023-02-20T14:30:43.663Z,1.83
2023-02-20T14:33:26.988Z,2.00
2023-02-20T14:36:04.125Z,1.80
2023-02-20T14:38:42.873Z,2.00
2023-02-20T14:41:16.819Z,1.90
2023-02-20T14:43:45.533Z,2.10
2023-02-20T14:46:22.334Z,2.20
2023-02-20T14:48:50.958Z,2.43
2023-02-20T14:51:24.634Z,2.67
2023-02-20T14:53:59.326Z,2.30
2023-02-20T14:56:28.331Z,2.37
2023-02-20T14:58:57.016Z,2.27
2023-02-20T15:01:39.328Z,2.30
2023-02-20T15:04:13.847Z,2.33
2023-02-20T15:06:46.382Z,2.00
2023-02-20T15:09:22.506Z,2.03
2023-02-20T15:11:53.237Z,2.10
2023-02-20T15:14:24.442Z,2.03
2023-02-20T15:19:46.423Z,2.63
2023-02-20T15:22:25.851Z,2.60
2023-02-20T15:24:54.777Z,3.17
2023-02-20T15:27:24.640Z,2.97
2023-02-20T15:30:11.578Z,2.73
2023-02-20T15:32:42.116Z,2.60
2023-02-20T15:35:20.366Z,2.60
2023-02-20T15:37:50.227Z,2.80
2023-02-20T15:40:23.501Z,2.77
2023-02-20T15:42:56.934Z,2.70
2023-02-20T15:45:26.818Z,2.90
2023-02-20T15:47:55.408Z,3.10
2023-02-20T15:50:26.861Z,3.77
2023-02-20T15:52:55.562Z,3.10
2023-02-20T15:55:24.679Z,3.80
2023-02-20T15:57:56.741Z,6.80
2023-02-20T16:00:27.352Z,4.80
2023-02-20T16:02:56.049Z,4.10
2023-02-20T16:05:26.041Z,10.93
2023-02-20T16:07:54.705Z,8.33
2023-02-20T16:10:24.728Z,10.50
2023-02-20T16:12:54.574Z,9.40
2023-02-20T16:15:25.244Z,19.43
2023-02-20T16:17:53.752Z,14.20
2023-02-20T16:20:24.326Z,7.80
2023-02-20T16:22:54.462Z,6.93
2023-02-20T16:25:24.363Z,7.00
2023-02-20T16:27:54.142Z,5.53
2023-02-20T16:30:32.762Z,8.93
2023-02-20T16:33:02.729Z,5.93
2023-02-20T16:35:31.215Z,6.20
2023-02-20T16:38:01.595Z,18.90
2023-02-20T16:40:30.032Z,14.20
2023-02-20T16:42:58.538Z,11.37
2023-02-20T16:45:27.065Z,8.40
2023-02-20T16:47:58.807Z,7.53
2023-02-20T16:50:30.023Z,6.27
2023-02-20T16:53:02.912Z,6.60
2023-02-20T16:55:33.694Z,6.90
2023-02-20T16:58:02.369Z,13.10
2023-02-20T17:00:33.958Z,11.27
2023-02-20T17:03:02.505Z,9.40
2023-02-20T17:05:33.867Z,7.50
2023-02-20T17:08:04.834Z,6.77
2023-02-20T17:10:33.414Z,6.20
2023-02-20T17:13:01.914Z,5.20
2023-02-20T17:15:30.367Z,5.20
2023-02-20T17:17:58.897Z,5.60
2023-02-20T17:20:28.302Z,7.90
2023-02-20T17:23:04.666Z,9.47
2023-02-20T17:25:35.962Z,8.03
2023-02-20T17:28:06.546Z,6.23
2023-02-20T17:30:38.146Z,6.10
2023-02-20T17:33:06.800Z,7.57
2023-02-20T17:35:35.457Z,10.20
2023-02-20T17:38:04.566Z,13.80
2023-02-20T17:40:34.509Z,17.13
2023-02-20T17:43:03.166Z,11.37
2023-02-20T17:45:31.645Z,13.73
2023-02-20T17:48:00.189Z,16.53
2023-02-20T17:50:28.668Z,16.23
2023-02-20T17:52:57.176Z,13.20
2023-02-20T17:55:27.280Z,13.27
2023-02-20T17:57:57.220Z,26.77
2023-02-20T18:00:25.992Z,19.90
2023-02-20T18:02:54.494Z,17.97
2023-02-20T18:05:22.978Z,16.97
2023-02-20T18:07:51.493Z,11.80
2023-02-20T18:10:20.183Z,11.70
2023-02-20T18:13:02.525Z,18.27
2023-02-20T18:15:33.135Z,20.50
2023-02-20T18:18:01.833Z,18.13
2023-02-20T18:20:30.815Z,13.10
2023-02-20T18:22:59.417Z,9.23
2023-02-20T18:25:39.539Z,33.70
2023-02-20T18:28:10.070Z,41.00
2023-02-20T18:30:40.855Z,21.33
2023-02-20T18:33:09.437Z,15.03
2023-02-20T18:35:38.075Z,10.40
2023-02-20T18:38:06.788Z,9.83
2023-02-20T18:40:35.601Z,8.97
2023-02-20T18:43:04.062Z,8.77
2023-02-20T18:45:32.619Z,9.40
2023-02-20T18:48:02.535Z,9.03
2023-02-20T18:50:31.082Z,7.77
2023-02-20T18:52:59.931Z,7.00
2023-02-20T18:55:28.383Z,11.80
2023-02-20T18:57:59.800Z,7.73
2023-02-20T19:00:29.917Z,6.10
2023-02-20T19:03:01.032Z,14.43
2023-02-20T19:05:30.873Z,10.17
2023-02-20T19:08:00.224Z,7.20
2023-02-20T19:10:29.139Z,7.23
2023-02-20T19:12:58.288Z,5.93
2023-02-20T19:15:27.051Z,5.97
2023-02-20T19:17:55.777Z,5.03
2023-02-20T19:20:28.741Z,4.23
2023-02-20T19:23:00.589Z,4.10
2023-02-20T19:25:29.110Z,4.50
2023-02-20T19:27:57.716Z,6.30
2023-02-20T19:30:26.301Z,8.10
2023-02-20T19:32:54.931Z,11.07
2023-02-20T19:35:23.671Z,7.73
2023-02-20T19:37:52.128Z,7.90
2023-02-20T19:40:22.047Z,6.77
2023-02-20T19:42:50.584Z,8.87
2023-02-20T19:45:19.148Z,7.93
2023-02-20T19:47:47.555Z,7.10
2023-02-20T19:50:16.367Z,8.10
2023-02-20T19:52:45.158Z,5.97
2023-02-20T19:55:18.038Z,6.10
2023-02-20T19:57:48.077Z,3.30
2023-02-20T20:00:18.867Z,3.80
2023-02-20T20:02:47.894Z,5.17
2023-02-20T20:05:17.237Z,6.87
2023-02-20T20:07:46.016Z,10.70
2023-02-20T20:10:14.759Z,6.90
2023-02-20T20:12:48.988Z,5.27
2023-02-20T20:15:21.021Z,4.70
2023-02-20T20:17:50.536Z,4.37
2023-02-20T20:20:20.853Z,4.67
2023-02-20T20:22:50.026Z,4.27
2023-02-20T20:25:20.251Z,4.67
2023-02-20T20:27:49.516Z,5.10
2023-02-20T20:30:21.656Z,5.10
2023-02-20T20:32:50.806Z,5.80
2023-02-20T20:35:20.646Z,6.13
2023-02-20T20:37:49.202Z,6.43
2023-02-20T20:40:18.580Z,11.10
2023-02-20T20:42:47.393Z,7.20
2023-02-20T20:45:16.482Z,5.60
2023-02-20T20:47:48.281Z,5.30
2023-02-20T20:50:18.880Z,5.50
2023-02-20T20:52:47.788Z,6.73
2023-02-20T20:55:16.784Z,6.43
2023-02-20T20:57:45.340Z,6.93
2023-02-20T21:00:21.550Z,6.47
2023-02-20T21:02:51.545Z,6.03
2023-02-20T21:05:24.106Z,4.97
2023-02-20T21:07:52.548Z,5.15
2023-02-20T21:10:21.443Z,4.57
2023-02-20T21:12:49.940Z,4.13
2023-02-20T21:15:18.593Z,4.67
2023-02-20T21:17:47.268Z,4.30
2023-02-20T21:20:20.151Z,4.20
2023-02-20T21:22:49.048Z,3.93
2023-02-20T21:25:18.792Z,3.40
2023-02-20T21:27:47.383Z,3.70
2023-02-20T21:30:15.998Z,3.80
2023-02-20T21:32:44.621Z,3.70
2023-02-20T21:35:14.199Z,3.60
2023-02-20T21:37:44.049Z,3.67
2023-02-20T21:40:12.780Z,3.63
2023-02-20T21:42:58.542Z,4.13
2023-02-20T21:45:27.003Z,4.57
2023-02-20T21:47:55.450Z,4.50
2023-02-20T21:50:23.891Z,4.87
2023-02-20T21:52:53.862Z,4.97
2023-02-20T21:55:22.468Z,4.17
2023-02-20T21:57:51.494Z,4.30
2023-02-20T22:00:19.025Z,4.37
2023-02-20T22:02:46.423Z,3.90
2023-02-20T22:05:13.970Z,4.00
2023-02-20T22:07:59.849Z,4.00
2023-02-20T22:10:47.033Z,4.20
2023-02-20T22:13:33.273Z,5.53
2023-02-20T22:16:19.273Z,4.60
2023-02-20T22:19:05.275Z,4.20
2023-02-20T22:21:51.205Z,4.20
2023-02-20T22:24:39.087Z,3.77
2023-02-20T22:27:28.090Z,3.87
2023-02-20T22:30:14.461Z,4.10
2023-02-20T22:33:00.617Z,3.77
2023-02-20T22:35:46.627Z,3.80
2023-02-20T22:38:35.628Z,4.10
2023-02-20T22:41:21.610Z,3.90
2023-02-20T22:44:09.193Z,3.90
2023-02-20T22:46:55.172Z,4.27
2023-02-20T22:49:41.172Z,4.10
2023-02-20T22:52:26.993Z,3.83
2023-02-20T22:55:12.867Z,3.90
2023-02-20T22:57:58.789Z,3.57
2023-02-20T23:00:46.122Z,8.93
2023-02-20T23:03:32.244Z,8.67
2023-02-20T23:06:19.796Z,7.10
2023-02-20T23:09:06.938Z,5.10
2023-02-20T23:11:53.779Z,4.23
2023-02-20T23:14:39.885Z,3.80
2023-02-20T23:17:37.169Z,3.57
2023-02-20T23:20:25.670Z,4.40
2023-02-20T23:23:11.706Z,4.43
2023-02-20T23:25:57.369Z,4.27
2023-02-20T23:28:43.303Z,3.90
2023-02-20T23:31:29.088Z,3.83
2023-02-20T23:34:16.447Z,3.37
2023-02-20T23:37:05.265Z,3.47
2023-02-20T23:39:51.134Z,2.97
2023-02-20T23:42:38.017Z,2.80
2023-02-20T23:45:25.253Z,2.80
2023-02-20T23:48:11.301Z,2.90
2023-02-20T23:50:58.600Z,3.03
2023-02-20T23:53:44.836Z,2.87
2023-02-20T23:56:30.971Z,2.90
2023-02-20T23:59:17.085Z,2.60
